createdAt,value
2023-04-16T00:00:03.341Z,101893.25
2023-04-16T00:03:07.367Z,101895.00
2023-04-16T00:06:13.534Z,101898.50
2023-04-16T00:09:17.039Z,101888.97
2023-04-16T00:12:20.720Z,101886.31
2023-04-16T00:15:24.648Z,101895.91
2023-04-16T00:18:28.281Z,101900.28
2023-04-16T00:21:33.222Z,101904.63
2023-04-16T00:24:36.888Z,101900.28
2023-04-16T00:27:40.454Z,101903.78
2023-04-16T00:30:44.160Z,101904.69
2023-04-16T00:33:47.697Z,101910.78
2023-04-16T00:36:52.690Z,101909.94
2023-04-16T00:39:56.339Z,101908.16
2023-04-16T00:42:59.982Z,101917.75
2023-04-16T00:46:07.006Z,101915.13
2023-04-16T00:49:11.660Z,101918.66
2023-04-16T00:52:16.934Z,101922.97
2023-04-16T00:55:22.107Z,101925.59
2023-04-16T00:58:26.896Z,101923.00
2023-04-16T01:01:30.575Z,101924.75
2023-04-16T01:04:36.240Z,101924.75
2023-04-16T01:07:41.452Z,101929.97
2023-04-16T01:10:45.069Z,101928.25
2023-04-16T01:13:48.522Z,101928.25
2023-04-16T01:16:52.032Z,101937.78
2023-04-16T01:19:55.599Z,101935.19
2023-04-16T01:23:00.519Z,101935.19
2023-04-16T01:26:04.060Z,101934.34
2023-04-16T01:29:07.756Z,101939.53
2023-04-16T01:32:11.513Z,101944.75
2023-04-16T01:35:14.984Z,101944.78
2023-04-16T01:38:20.021Z,101945.66
2023-04-16T01:41:23.659Z,101945.66
2023-04-16T01:44:28.088Z,101937.78
2023-04-16T01:47:31.749Z,101947.41
2023-04-16T01:50:36.224Z,101948.25
2023-04-16T01:53:41.230Z,101963.94
2023-04-16T01:56:44.741Z,101951.75
2023-04-16T01:59:48.256Z,101950.88
2023-04-16T02:02:51.897Z,101955.19
2023-04-16T02:05:55.689Z,101953.47
2023-04-16T02:09:00.643Z,101954.31
2023-04-16T02:12:04.392Z,101957.81
2023-04-16T02:15:09.740Z,101955.19
2023-04-16T02:18:13.373Z,101954.31
2023-04-16T02:21:17.255Z,101953.47
2023-04-16T02:24:22.865Z,101962.16
2023-04-16T02:27:26.479Z,101964.75
2023-04-16T02:30:29.967Z,101965.63
2023-04-16T02:33:33.521Z,101970.00
2023-04-16T02:36:37.064Z,101967.38
2023-04-16T02:39:43.056Z,101963.91
2023-04-16T02:42:47.950Z,101965.63
2023-04-16T02:45:51.649Z,101968.25
2023-04-16T02:48:55.178Z,101976.94
2023-04-16T02:51:58.743Z,101980.44
2023-04-16T02:55:03.902Z,101986.53
2023-04-16T02:58:07.552Z,101991.75
2023-04-16T03:01:13.959Z,101992.63
2023-04-16T03:04:18.733Z,101998.75
2023-04-16T03:07:22.416Z,101998.72
2023-04-16T03:10:27.506Z,102003.97
2023-04-16T03:13:31.341Z,102006.59
2023-04-16T03:16:34.949Z,102008.28
2023-04-16T03:19:38.513Z,102014.41
2023-04-16T03:22:42.141Z,102003.94
2023-04-16T03:25:48.146Z,102015.28
2023-04-16T03:28:51.673Z,102012.66
2023-04-16T03:31:55.329Z,102017.91
2023-04-16T03:34:59.263Z,102020.50
2023-04-16T03:38:02.778Z,102017.03
2023-04-16T03:41:07.819Z,102007.47
2023-04-16T03:44:11.694Z,102021.38
2023-04-16T03:47:15.624Z,102021.38
2023-04-16T03:50:20.812Z,102013.56
2023-04-16T03:53:24.532Z,102010.94
2023-04-16T03:56:29.446Z,102016.16
2023-04-16T03:59:34.923Z,102012.66
2023-04-16T04:02:38.648Z,102020.50
2023-04-16T04:05:43.994Z,102023.09
2023-04-16T04:08:47.619Z,102008.34
2023-04-16T04:11:52.760Z,102018.78
2023-04-16T04:14:56.230Z,102010.94
2023-04-16T04:18:00.427Z,102018.78
2023-04-16T04:21:07.893Z,102019.63
2023-04-16T04:24:11.855Z,102025.72
2023-04-16T04:27:16.799Z,102017.03
2023-04-16T04:30:20.728Z,102024.84
2023-04-16T04:33:24.341Z,102027.47
2023-04-16T04:36:28.320Z,102034.41
2023-04-16T04:39:31.839Z,102032.66
2023-04-16T04:42:36.979Z,102045.72
2023-04-16T04:45:40.572Z,102043.13
2023-04-16T04:48:44.281Z,102044.84
2023-04-16T04:51:50.186Z,102040.50
2023-04-16T04:55:01.507Z,102041.38
2023-04-16T04:58:09.821Z,102045.72
2023-04-16T05:01:16.580Z,102049.19
2023-04-16T05:04:21.208Z,102054.41
2023-04-16T05:07:24.862Z,102051.78
2023-04-16T05:10:28.756Z,102060.50
2023-04-16T05:13:33.744Z,102059.66
2023-04-16T05:16:38.818Z,102066.63
2023-04-16T05:19:42.468Z,102061.41
2023-04-16T05:22:46.039Z,102070.09
2023-04-16T05:25:49.634Z,102067.50
2023-04-16T05:28:54.712Z,102071.84
2023-04-16T05:31:58.561Z,102076.16
2023-04-16T05:35:02.543Z,102081.41
2023-04-16T05:38:06.053Z,102078.81
2023-04-16T05:41:09.546Z,102086.63
2023-04-16T05:44:15.337Z,102090.09
2023-04-16T05:47:18.846Z,102092.69
2023-04-16T05:50:23.445Z,102101.41
2023-04-16T05:53:26.973Z,102100.53
2023-04-16T05:56:30.466Z,102101.38
2023-04-16T05:59:35.471Z,102102.25
2023-04-16T06:02:39.275Z,102104.88
2023-04-16T06:05:42.923Z,102104.88
2023-04-16T06:08:46.457Z,102104.00
2023-04-16T06:11:50.620Z,102108.31
2023-04-16T06:14:56.325Z,102108.34
2023-04-16T06:18:01.047Z,102124.84
2023-04-16T06:21:05.989Z,102117.91
2023-04-16T06:24:09.533Z,102115.28
2023-04-16T06:27:13.199Z,102125.72
2023-04-16T06:30:18.317Z,102123.09
2023-04-16T06:33:21.994Z,102123.97
2023-04-16T06:36:27.593Z,102126.56
2023-04-16T06:39:31.682Z,102122.19
2023-04-16T06:42:35.549Z,102124.81
2023-04-16T06:45:40.586Z,102130.03
2023-04-16T06:48:44.154Z,102132.66
2023-04-16T06:51:47.986Z,102136.13
2023-04-16T06:54:51.708Z,102136.13
2023-04-16T06:57:55.282Z,102139.63
2023-04-16T07:01:00.771Z,102143.97
2023-04-16T07:04:05.365Z,102133.50
2023-04-16T07:07:09.740Z,102140.44
2023-04-16T07:10:13.269Z,102145.69
2023-04-16T07:13:18.802Z,102151.75
2023-04-16T07:16:23.753Z,102145.66
2023-04-16T07:19:30.589Z,102144.78
2023-04-16T07:22:34.242Z,102143.84
2023-04-16T07:25:37.740Z,102147.31
2023-04-16T07:28:41.340Z,102154.22
2023-04-16T07:31:46.709Z,102153.38
2023-04-16T07:34:50.274Z,102146.28
2023-04-16T07:37:53.969Z,102150.66
2023-04-16T07:40:57.665Z,102143.75
2023-04-16T07:44:01.919Z,102156.78
2023-04-16T07:47:06.846Z,102157.56
2023-04-16T07:50:11.875Z,102149.72
2023-04-16T07:53:15.580Z,102154.97
2023-04-16T07:56:19.171Z,102161.94
2023-04-16T07:59:24.335Z,102163.63
2023-04-16T08:02:29.694Z,102167.19
2023-04-16T08:05:33.414Z,102170.59
2023-04-16T08:08:37.194Z,102172.34
2023-04-16T08:11:40.765Z,102179.31
2023-04-16T08:14:45.100Z,102179.28
2023-04-16T08:17:49.970Z,102182.78
2023-04-16T08:20:53.632Z,102182.66
2023-04-16T08:23:57.179Z,102191.31
2023-04-16T08:27:15.128Z,102192.19
2023-04-16T08:30:22.023Z,102191.22
2023-04-16T08:33:27.186Z,102190.34
2023-04-16T08:36:31.339Z,102196.25
2023-04-16T08:39:35.433Z,102193.44
2023-04-16T08:42:46.804Z,102198.84
2023-04-16T08:45:56.376Z,102204.84
2023-04-16T08:49:06.980Z,102204.78
2023-04-16T08:52:17.718Z,102201.00
2023-04-16T08:55:27.896Z,102205.69
2023-04-16T08:58:35.640Z,102207.88
2023-04-16T09:01:41.978Z,102205.06
2023-04-16T09:04:49.870Z,102211.91
2023-04-16T09:07:54.709Z,102211.66
2023-04-16T09:10:58.560Z,102213.63
2023-04-16T09:14:03.195Z,102213.94
2023-04-16T09:17:08.409Z,102211.56
2023-04-16T09:20:13.971Z,102214.22
2023-04-16T09:23:17.630Z,102205.44
2023-04-16T09:26:22.065Z,102220.38
2023-04-16T09:29:37.054Z,102208.84
2023-04-16T09:32:40.595Z,102215.31
2023-04-16T09:35:50.086Z,102212.22
2023-04-16T09:38:56.948Z,102210.34
2023-04-16T09:42:01.177Z,102222.88
2023-04-16T09:45:06.223Z,102223.84
2023-04-16T09:48:09.909Z,102222.34
2023-04-16T09:51:14.791Z,102228.72
2023-04-16T09:54:18.296Z,102222.41
2023-04-16T09:57:22.993Z,102234.81
2023-04-16T10:00:26.529Z,102223.78
2023-04-16T10:03:34.617Z,102238.59
2023-04-16T10:06:40.035Z,102237.63
2023-04-16T10:09:44.042Z,102241.81
2023-04-16T10:12:47.716Z,102241.81
2023-04-16T10:15:52.580Z,102245.34
2023-04-16T10:18:57.511Z,102252.53
2023-04-16T10:22:03.258Z,102246.38
2023-04-16T10:25:08.936Z,102245.84
2023-04-16T10:28:15.006Z,102248.38
2023-04-16T10:31:19.797Z,102254.81
2023-04-16T10:34:25.590Z,102249.75
2023-04-16T10:37:34.659Z,102255.06
2023-04-16T10:40:38.151Z,102252.06
2023-04-16T10:43:44.317Z,102255.47
2023-04-16T10:46:50.802Z,102259.41
2023-04-16T10:49:54.618Z,102253.59
2023-04-16T10:53:24.596Z,102248.19
2023-04-16T10:56:30.524Z,102250.22
2023-04-16T10:59:36.311Z,102245.31
2023-04-16T11:02:42.726Z,102244.47
2023-04-16T11:05:47.938Z,102242.63
2023-04-16T11:08:55.417Z,102243.16
2023-04-16T11:11:59.603Z,102249.16
2023-04-16T11:15:05.770Z,102255.22
2023-04-16T11:18:10.921Z,102248.50
2023-04-16T11:21:14.605Z,102236.25
2023-04-16T11:24:19.458Z,102238.41
2023-04-16T11:27:23.729Z,102247.94
2023-04-16T11:30:32.007Z,102253.31
2023-04-16T11:33:35.498Z,102233.56
2023-04-16T11:36:45.214Z,102242.94
2023-04-16T11:39:54.699Z,102235.16
2023-04-16T11:43:03.982Z,102248.34
2023-04-16T11:46:20.612Z,102240.44
2023-04-16T11:49:31.189Z,102244.22
2023-04-16T11:52:36.454Z,102250.25
2023-04-16T11:55:46.638Z,102247.22
2023-04-16T11:59:09.364Z,102255.88
2023-04-16T12:02:14.429Z,102257.00
2023-04-16T12:05:38.886Z,102254.69
2023-04-16T12:08:48.399Z,102257.44
2023-04-16T12:11:54.031Z,102265.34
2023-04-16T12:14:59.746Z,102253.66
2023-04-16T12:18:10.484Z,102269.34
2023-04-16T12:21:14.195Z,102256.34
2023-04-16T12:24:24.102Z,102263.41
2023-04-16T12:27:45.566Z,102264.34
2023-04-16T12:30:53.217Z,102265.88
2023-04-16T12:34:04.071Z,102264.25
2023-04-16T12:37:10.640Z,102260.78
2023-04-16T12:40:14.725Z,102268.53
2023-04-16T12:43:19.997Z,102271.97
2023-04-16T12:46:23.755Z,102273.59
2023-04-16T12:49:27.318Z,102271.91
2023-04-16T12:52:31.110Z,102270.09
2023-04-16T12:55:34.836Z,102267.97
2023-04-16T12:58:39.882Z,102273.16
2023-04-16T13:01:43.419Z,102263.09
2023-04-16T13:04:47.262Z,102275.28
2023-04-16T13:07:50.992Z,102278.56
2023-04-16T13:10:57.053Z,102270.72
2023-04-16T13:14:01.991Z,102271.25
2023-04-16T13:17:06.314Z,102267.34
2023-04-16T13:20:11.226Z,102273.97
2023-04-16T13:23:15.193Z,102264.94
2023-04-16T13:26:18.901Z,102276.84
2023-04-16T13:29:24.321Z,102271.69
2023-04-16T13:32:28.025Z,102276.81
2023-04-16T13:35:32.241Z,102278.78
2023-04-16T13:38:36.124Z,102291.53
2023-04-16T13:41:39.857Z,102285.94
2023-04-16T13:44:48.765Z,102278.81
2023-04-16T13:47:52.489Z,102289.81
2023-04-16T13:50:56.070Z,102284.94
2023-04-16T13:54:00.624Z,102284.81
2023-04-16T13:57:04.152Z,102277.50
2023-04-16T14:00:13.083Z,102280.81
2023-04-16T14:03:17.119Z,102284.66
2023-04-16T14:06:20.724Z,102282.47
2023-04-16T14:09:24.450Z,102279.13
2023-04-16T14:12:30.282Z,102269.97
2023-04-16T14:15:35.426Z,102270.91
2023-04-16T14:18:42.397Z,102273.91
2023-04-16T14:21:46.206Z,102281.28
2023-04-16T14:24:49.819Z,102270.78
2023-04-16T14:27:53.907Z,102279.50
2023-04-16T14:30:58.806Z,102269.81
2023-04-16T14:34:02.720Z,102277.59
2023-04-16T14:37:07.104Z,102285.59
2023-04-16T14:40:12.351Z,102283.16
2023-04-16T14:43:16.147Z,102283.91
2023-04-16T14:46:21.092Z,102281.09
2023-04-16T14:49:24.939Z,102284.84
2023-04-16T14:52:29.644Z,102274.25
2023-04-16T14:55:33.431Z,102284.69
2023-04-16T14:58:39.076Z,102277.31
2023-04-16T15:01:44.838Z,102282.13
2023-04-16T15:04:48.387Z,102287.16
2023-04-16T15:07:51.853Z,102284.91
2023-04-16T15:10:55.669Z,102281.66
2023-04-16T15:13:59.196Z,102289.44
2023-04-16T15:17:04.380Z,102287.13
2023-04-16T15:20:10.551Z,102287.53
2023-04-16T15:23:13.996Z,102282.91
2023-04-16T15:26:17.578Z,102287.09
2023-04-16T15:29:21.239Z,102275.91
2023-04-16T15:32:26.170Z,102291.47
2023-04-16T15:35:29.959Z,102293.03
2023-04-16T15:38:33.460Z,102292.44
2023-04-16T15:41:50.166Z,102286.16
2023-04-16T15:45:00.888Z,102287.81
2023-04-16T15:48:06.539Z,102286.03
2023-04-16T15:51:10.391Z,102300.84
2023-04-16T15:54:13.859Z,102291.28
2023-04-16T15:57:17.408Z,102292.19
2023-04-16T16:00:21.755Z,102300.94
2023-04-16T16:03:28.422Z,102303.97
2023-04-16T16:06:32.688Z,102299.91
2023-04-16T16:09:36.759Z,102304.13
2023-04-16T16:12:40.656Z,102311.50
2023-04-16T16:15:44.281Z,102319.25
2023-04-16T16:18:49.292Z,102316.63
2023-04-16T16:21:53.014Z,102306.97
2023-04-16T16:24:58.399Z,102316.78
2023-04-16T16:28:05.998Z,102323.84
2023-04-16T16:31:09.963Z,102320.22
2023-04-16T16:34:20.927Z,102318.78
2023-04-16T16:37:25.033Z,102324.91
2023-04-16T16:40:29.703Z,102324.03
2023-04-16T16:43:33.388Z,102321.56
2023-04-16T16:46:37.389Z,102327.03
2023-04-16T16:49:42.308Z,102334.16
2023-04-16T16:52:46.123Z,102336.84
2023-04-16T16:55:49.624Z,102345.63
2023-04-16T16:58:55.195Z,102344.75
2023-04-16T17:01:59.091Z,102342.97
2023-04-16T17:05:04.500Z,102344.00
2023-04-16T17:08:08.103Z,102348.34
2023-04-16T17:11:11.870Z,102345.06
2023-04-16T17:14:21.381Z,102343.25
2023-04-16T17:17:55.283Z,102351.13
2023-04-16T17:21:00.353Z,102343.34
2023-04-16T17:24:03.907Z,102352.97
2023-04-16T17:27:07.491Z,102354.75
2023-04-16T17:30:11.894Z,102356.47
2023-04-16T17:33:17.168Z,102357.38
2023-04-16T17:36:23.121Z,102369.75
2023-04-16T17:39:26.720Z,102367.16
2023-04-16T17:42:30.398Z,102364.53
2023-04-16T17:45:34.913Z,102375.13
2023-04-16T17:48:38.579Z,102376.94
2023-04-16T17:51:44.639Z,102383.97
2023-04-16T17:54:48.504Z,102380.56
2023-04-16T17:57:52.021Z,102381.47
2023-04-16T18:00:55.570Z,102380.59
2023-04-16T18:03:59.238Z,102390.28
2023-04-16T18:07:04.283Z,102392.06
2023-04-16T18:10:10.181Z,102399.06
2023-04-16T18:13:13.728Z,102393.03
2023-04-16T18:16:18.253Z,102397.44
2023-04-16T18:19:22.269Z,102412.28
2023-04-16T18:22:28.521Z,102410.59
2023-04-16T18:25:35.032Z,102420.22
2023-04-16T18:28:38.978Z,102426.38
2023-04-16T18:31:42.951Z,102423.78
2023-04-16T18:34:46.665Z,102427.31
2023-04-16T18:37:51.538Z,102430.84
2023-04-16T18:40:55.019Z,102423.91
2023-04-16T18:43:58.679Z,102430.91
2023-04-16T18:47:02.436Z,102424.81
2023-04-16T18:50:07.836Z,102439.72
2023-04-16T18:53:12.824Z,102449.31
2023-04-16T18:56:16.393Z,102446.75
2023-04-16T18:59:19.880Z,102450.28
2023-04-16T19:02:23.417Z,102457.25
2023-04-16T19:05:26.959Z,102455.56
2023-04-16T19:08:31.862Z,102463.44
2023-04-16T19:11:35.333Z,102468.72
2023-04-16T19:14:40.096Z,102465.25
2023-04-16T19:17:43.638Z,102472.28
2023-04-16T19:20:47.151Z,102467.94
2023-04-16T19:23:52.049Z,102479.28
2023-04-16T19:26:55.996Z,102477.53
2023-04-16T19:29:59.541Z,102476.66
2023-04-16T19:33:03.118Z,102484.53
2023-04-16T19:36:07.581Z,102482.81
2023-04-16T19:39:12.738Z,102487.19
2023-04-16T19:42:16.735Z,102486.31
2023-04-16T19:45:25.645Z,102488.94
2023-04-16T19:48:30.429Z,102493.31
2023-04-16T19:51:34.754Z,102498.56
2023-04-16T19:54:40.333Z,102490.69
2023-04-16T19:57:44.275Z,102494.19
2023-04-16T20:00:48.144Z,102499.44
2023-04-16T20:03:51.654Z,102493.34
2023-04-16T20:06:55.230Z,102499.44
2023-04-16T20:10:00.437Z,102495.09
2023-04-16T20:13:04.967Z,102502.97
2023-04-16T20:16:09.427Z,102496.00
2023-04-16T20:19:19.921Z,102502.97
2023-04-16T20:22:23.493Z,102503.84
2023-04-16T20:25:29.323Z,102517.81
2023-04-16T20:28:32.754Z,102503.84
2023-04-16T20:31:36.219Z,102515.22
2023-04-16T20:34:40.503Z,102517.81
2023-04-16T20:37:43.978Z,102509.97
2023-04-16T20:40:48.900Z,102509.09
2023-04-16T20:43:52.885Z,102516.06
2023-04-16T20:46:57.178Z,102516.06
2023-04-16T20:50:01.809Z,102509.09
2023-04-16T20:53:05.315Z,102516.09
2023-04-16T20:56:12.163Z,102513.47
2023-04-16T20:59:15.730Z,102521.31
2023-04-16T21:02:20.170Z,102522.19
2023-04-16T21:05:26.547Z,102530.03
2023-04-16T21:08:30.158Z,102531.81
2023-04-16T21:11:35.904Z,102533.53
2023-04-16T21:14:39.390Z,102530.94
2023-04-16T21:17:43.057Z,102530.06
2023-04-16T21:20:46.739Z,102533.56
2023-04-16T21:23:50.433Z,102529.19
2023-04-16T21:26:55.298Z,102535.28
2023-04-16T21:29:58.791Z,102530.91
2023-04-16T21:33:02.638Z,102533.53
2023-04-16T21:36:06.580Z,102536.13
2023-04-16T21:39:11.180Z,102535.25
2023-04-16T21:42:16.138Z,102538.78
2023-04-16T21:45:21.719Z,102538.78
2023-04-16T21:48:27.054Z,102540.50
2023-04-16T21:51:30.704Z,102538.75
2023-04-16T21:54:34.194Z,102543.97
2023-04-16T21:57:39.411Z,102541.38
2023-04-16T22:00:43.071Z,102538.75
2023-04-16T22:03:51.108Z,102542.22
2023-04-16T22:06:56.307Z,102544.84
2023-04-16T22:10:00.005Z,102544.84
2023-04-16T22:13:05.086Z,102546.59
2023-04-16T22:16:11.512Z,102547.44
2023-04-16T22:19:15.414Z,102550.06
2023-04-16T22:22:20.635Z,102550.06
2023-04-16T22:25:25.648Z,102550.94
2023-04-16T22:28:30.524Z,102547.41
2023-04-16T22:31:34.393Z,102552.66
2023-04-16T22:34:37.939Z,102546.56
2023-04-16T22:37:41.435Z,102549.19
2023-04-16T22:40:44.923Z,102544.81
2023-04-16T22:43:52.297Z,102551.78
2023-04-16T22:46:56.064Z,102546.53
2023-04-16T22:50:00.626Z,102543.91
2023-04-16T22:53:04.102Z,102541.28
2023-04-16T22:56:08.468Z,102540.44
2023-04-16T22:59:13.535Z,102542.16
2023-04-16T23:02:17.407Z,102550.91
2023-04-16T23:05:21.235Z,102544.78
2023-04-16T23:08:24.712Z,102543.91
2023-04-16T23:11:28.209Z,102539.53
2023-04-16T23:14:33.045Z,102541.28
2023-04-16T23:17:36.572Z,102541.28
2023-04-16T23:20:40.226Z,102545.66
2023-04-16T23:23:43.795Z,102542.16
2023-04-16T23:26:47.994Z,102547.38
2023-04-16T23:29:52.821Z,102542.13
2023-04-16T23:32:56.430Z,102544.72
2023-04-16T23:36:00.024Z,102552.56
2023-04-16T23:39:03.468Z,102542.97
2023-04-16T23:42:07.138Z,102549.97
2023-04-16T23:45:12.865Z,102550.84
2023-04-16T23:48:16.509Z,102546.47
2023-04-16T23:51:19.948Z,102551.69
2023-04-16T23:54:23.872Z,102553.47
2023-04-16T23:57:27.312Z,102556.03
